createdAt,value
2018-06-11T00:01:23.722Z,91.60
2018-06-11T00:03:57.594Z,91.60
2018-06-11T00:06:31.374Z,91.60
2018-06-11T00:09:05.394Z,91.70
2018-06-11T00:11:39.463Z,91.90
2018-06-11T00:14:13.287Z,91.70
2018-06-11T00:16:47.081Z,91.80
2018-06-11T00:19:20.952Z,91.90
2018-06-11T00:21:54.681Z,92.00
2018-06-11T00:24:28.526Z,92.40
2018-06-11T00:27:02.279Z,92.10
2018-06-11T00:29:36.133Z,92.00
2018-06-11T00:32:09.922Z,92.00
2018-06-11T00:34:44.703Z,92.20
2018-06-11T00:37:17.133Z,92.10
2018-06-11T00:39:51.200Z,92.00
2018-06-11T00:42:25.006Z,91.90
2018-06-11T00:44:58.793Z,91.70
2018-06-11T00:47:32.704Z,91.90
2018-06-11T00:50:06.467Z,91.40
2018-06-11T00:52:40.188Z,90.70
2018-06-11T00:55:13.971Z,88.10
2018-06-11T00:57:47.740Z,87.20
2018-06-11T01:00:21.516Z,87.10
2018-06-11T01:02:55.492Z,87.00
2018-06-11T01:05:29.311Z,86.50
2018-06-11T01:08:03.104Z,86.30
2018-06-11T01:10:36.835Z,86.20
2018-06-11T01:13:10.553Z,86.20
2018-06-11T01:15:44.346Z,86.40
2018-06-11T01:18:18.022Z,85.80
2018-06-11T01:20:51.733Z,84.30
2018-06-11T01:23:25.443Z,83.90
2018-06-11T01:25:59.185Z,84.30
2018-06-11T01:28:32.940Z,83.90
2018-06-11T01:31:06.688Z,82.90
2018-06-11T01:33:40.418Z,82.80
2018-06-11T01:36:14.239Z,82.40
2018-06-11T01:38:47.982Z,81.80
2018-06-11T01:41:21.749Z,82.00
2018-06-11T01:43:55.619Z,81.60
2018-06-11T01:46:29.327Z,81.50
2018-06-11T01:49:03.503Z,81.80
2018-06-11T01:51:37.298Z,81.90
2018-06-11T01:54:11.135Z,81.40
2018-06-11T01:56:44.855Z,81.50
2018-06-11T01:59:18.718Z,81.40
2018-06-11T02:01:52.568Z,81.80
2018-06-11T02:04:26.343Z,81.90
2018-06-11T02:07:00.175Z,81.40
2018-06-11T02:09:33.946Z,81.50
2018-06-11T02:12:07.802Z,81.70
2018-06-11T02:14:41.654Z,81.60
2018-06-11T02:17:15.511Z,81.70
2018-06-11T02:19:49.183Z,81.40
2018-06-11T02:22:23.016Z,81.60
2018-06-11T02:24:56.744Z,82.20
2018-06-11T02:27:30.605Z,81.90
2018-06-11T02:30:04.385Z,81.70
2018-06-11T02:32:38.222Z,81.90
2018-06-11T02:35:12.056Z,81.80
2018-06-11T02:37:45.808Z,81.90
2018-06-11T02:40:19.610Z,81.90
2018-06-11T02:42:53.345Z,81.90
2018-06-11T02:45:27.185Z,82.50
2018-06-11T02:48:00.998Z,82.00
2018-06-11T02:50:34.729Z,82.00
2018-06-11T02:53:08.518Z,81.40
2018-06-11T02:55:42.197Z,81.20
2018-06-11T02:58:15.889Z,81.10
2018-06-11T03:00:49.609Z,80.70
2018-06-11T03:03:23.332Z,80.50
2018-06-11T03:05:57.105Z,80.90
2018-06-11T03:08:30.905Z,80.10
2018-06-11T03:11:04.674Z,79.80
2018-06-11T03:13:38.517Z,79.90
2018-06-11T03:16:12.325Z,80.30
2018-06-11T03:18:46.043Z,80.10
2018-06-11T03:21:19.833Z,80.30
2018-06-11T03:23:53.599Z,80.20
2018-06-11T03:26:27.356Z,81.40
2018-06-11T03:29:01.160Z,83.40
2018-06-11T03:31:34.963Z,83.80
2018-06-11T03:34:08.161Z,84.30
2018-06-11T03:36:41.941Z,84.80
2018-06-11T03:39:15.745Z,85.00
2018-06-11T03:41:49.480Z,85.00
2018-06-11T03:44:23.220Z,85.80
2018-06-11T03:46:56.929Z,86.50
2018-06-11T03:49:30.773Z,87.10
2018-06-11T03:52:04.504Z,87.40
2018-06-11T03:54:38.338Z,86.90
2018-06-11T03:57:12.118Z,87.10
2018-06-11T03:59:45.962Z,87.90
2018-06-11T04:02:19.753Z,88.20
2018-06-11T04:04:53.574Z,88.20
2018-06-11T04:07:27.419Z,87.90
2018-06-11T04:10:01.187Z,88.20
2018-06-11T04:12:35.069Z,88.60
2018-06-11T04:15:08.847Z,88.80
2018-06-11T04:17:42.569Z,88.80
2018-06-11T04:20:16.281Z,88.00
2018-06-11T04:22:49.999Z,87.70
2018-06-11T04:25:23.731Z,87.70
2018-06-11T04:27:57.531Z,87.40
2018-06-11T04:30:30.013Z,87.40
2018-06-11T04:33:02.429Z,87.90
2018-06-11T04:35:34.800Z,87.80
2018-06-11T04:38:07.206Z,87.80
2018-06-11T04:40:39.541Z,88.00
2018-06-11T04:43:11.931Z,88.00
2018-06-11T04:45:44.342Z,89.30
2018-06-11T04:48:16.699Z,88.60
2018-06-11T04:50:49.106Z,88.60
2018-06-11T04:53:21.513Z,89.20
2018-06-11T04:55:53.892Z,88.80
2018-06-11T04:58:26.241Z,88.80
2018-06-11T05:00:58.621Z,88.80
2018-06-11T05:03:31.011Z,88.90
2018-06-11T05:06:03.444Z,88.40
2018-06-11T05:08:35.852Z,88.30
2018-06-11T05:11:08.268Z,88.50
2018-06-11T05:13:40.619Z,88.00
2018-06-11T05:16:13.012Z,88.20
2018-06-11T05:18:45.340Z,87.40
2018-06-11T05:21:17.702Z,87.40
2018-06-11T05:23:50.084Z,87.60
2018-06-11T05:26:22.504Z,87.50
2018-06-11T05:28:54.872Z,87.30
2018-06-11T05:31:27.272Z,87.30
2018-06-11T05:33:59.641Z,87.40
2018-06-11T05:36:32.144Z,87.50
2018-06-11T05:39:04.944Z,86.80
2018-06-11T05:41:37.631Z,82.60
2018-06-11T05:44:09.998Z,79.60
2018-06-11T05:46:42.409Z,78.10
2018-06-11T05:49:14.758Z,79.00
2018-06-11T05:51:47.193Z,77.90
2018-06-11T05:54:19.639Z,76.80
2018-06-11T05:56:52.032Z,77.30
2018-06-11T05:59:24.456Z,75.40
2018-06-11T06:01:56.869Z,74.20
2018-06-11T06:04:29.228Z,73.90
2018-06-11T06:07:01.576Z,73.00
2018-06-11T06:09:33.944Z,71.70
2018-06-11T06:12:06.354Z,71.30
2018-06-11T06:14:38.774Z,69.60
2018-06-11T06:17:11.161Z,70.40
2018-06-11T06:19:43.531Z,71.00
2018-06-11T06:22:15.935Z,71.20
2018-06-11T06:24:48.319Z,71.00
2018-06-11T06:27:20.725Z,70.10
2018-06-11T06:29:53.106Z,69.60
2018-06-11T06:32:25.494Z,69.50
2018-06-11T06:34:57.904Z,69.20
2018-06-11T06:37:30.321Z,68.70
2018-06-11T06:40:02.695Z,69.30
2018-06-11T06:42:35.070Z,69.10
2018-06-11T06:45:07.698Z,69.20
2018-06-11T06:47:40.076Z,68.60
2018-06-11T06:50:12.449Z,69.20
2018-06-11T06:52:44.849Z,69.30
2018-06-11T06:55:17.268Z,68.70
2018-06-11T06:57:49.656Z,68.40
2018-06-11T07:00:22.041Z,67.90
2018-06-11T07:02:54.483Z,67.40
2018-06-11T07:05:26.846Z,67.10
2018-06-11T07:07:59.218Z,66.90
2018-06-11T07:10:31.589Z,66.70
2018-06-11T07:13:03.997Z,66.30
2018-06-11T07:15:36.464Z,66.60
2018-06-11T07:18:08.825Z,67.00
2018-06-11T07:20:42.167Z,67.80
2018-06-11T07:23:18.824Z,67.00
2018-06-11T07:25:51.450Z,69.80
2018-06-11T07:28:23.849Z,68.80
2018-06-11T07:30:56.267Z,68.00
2018-06-11T07:33:28.734Z,66.80
2018-06-11T07:36:01.153Z,66.50
2018-06-11T07:38:33.547Z,66.80
2018-06-11T07:41:06.024Z,65.20
2018-06-11T07:43:38.413Z,65.30
2018-06-11T07:46:10.817Z,65.40
2018-06-11T07:48:43.209Z,65.70
2018-06-11T07:51:15.591Z,64.80
2018-06-11T07:53:47.985Z,64.30
2018-06-11T07:56:20.361Z,64.00
2018-06-11T07:58:52.723Z,64.10
2018-06-11T08:01:25.098Z,63.30
2018-06-11T08:03:57.469Z,62.80
2018-06-11T08:06:29.837Z,62.40
2018-06-11T08:09:02.251Z,62.30
2018-06-11T08:11:34.668Z,62.50
2018-06-11T08:14:07.132Z,63.50
2018-06-11T08:16:39.516Z,62.80
2018-06-11T08:19:11.887Z,63.70
2018-06-11T08:21:44.266Z,63.30
2018-06-11T08:24:16.624Z,62.60
2018-06-11T08:26:49.029Z,62.60
2018-06-11T08:29:21.415Z,62.00
2018-06-11T08:31:53.866Z,61.40
2018-06-11T08:34:26.224Z,62.60
2018-06-11T08:36:58.700Z,62.00
2018-06-11T08:39:31.107Z,61.60
2018-06-11T08:42:03.505Z,61.80
2018-06-11T08:44:35.891Z,62.50
2018-06-11T08:47:08.601Z,60.40
2018-06-11T08:49:41.490Z,61.40
2018-06-11T08:52:13.915Z,62.50
2018-06-11T08:54:46.272Z,61.50
2018-06-11T08:57:18.688Z,60.20
2018-06-11T08:59:51.085Z,60.00
2018-06-11T09:02:23.576Z,59.50
2018-06-11T09:04:55.936Z,59.40
2018-06-11T09:10:00.289Z,60.40
2018-06-11T09:12:32.735Z,61.00
2018-06-11T09:15:05.137Z,60.70
2018-06-11T09:17:37.550Z,60.60
2018-06-11T09:20:09.961Z,61.90
2018-06-11T09:22:42.612Z,61.00
2018-06-11T09:25:15.013Z,62.50
2018-06-11T09:27:47.429Z,62.20
2018-06-11T09:30:19.828Z,61.80
2018-06-11T09:32:52.237Z,62.50
2018-06-11T09:35:24.603Z,61.70
2018-06-11T09:37:56.999Z,60.40
2018-06-11T09:40:29.374Z,59.20
2018-06-11T09:43:01.745Z,60.00
2018-06-11T09:45:34.117Z,60.60
2018-06-11T09:48:06.531Z,60.60
2018-06-11T09:50:38.908Z,61.30
2018-06-11T09:53:11.288Z,61.00
2018-06-11T09:55:43.788Z,59.90
2018-06-11T09:58:16.180Z,60.10
2018-06-11T10:00:48.569Z,60.40
2018-06-11T10:03:20.931Z,61.40
2018-06-11T10:05:53.309Z,61.40
2018-06-11T10:08:25.725Z,61.80
2018-06-11T10:10:58.069Z,60.90
2018-06-11T10:13:30.408Z,60.80
2018-06-11T10:16:02.771Z,61.20
2018-06-11T10:18:35.133Z,59.90
2018-06-11T10:21:07.810Z,59.80
2018-06-11T10:23:40.219Z,58.90
2018-06-11T10:26:12.674Z,58.70
2018-06-11T10:28:45.038Z,58.70
2018-06-11T10:31:17.404Z,58.40
2018-06-11T10:33:49.776Z,58.40
2018-06-11T10:36:22.164Z,58.80
2018-06-11T10:38:54.552Z,59.40
2018-06-11T10:41:26.921Z,58.20
2018-06-11T10:43:59.275Z,57.80
2018-06-11T10:46:31.757Z,58.40
2018-06-11T10:49:04.193Z,57.40
2018-06-11T10:51:36.572Z,57.10
2018-06-11T10:54:09.314Z,56.00
2018-06-11T10:56:41.696Z,56.40
2018-06-11T10:59:14.159Z,55.50
2018-06-11T11:01:46.552Z,55.60
2018-06-11T11:04:18.944Z,56.20
2018-06-11T11:06:51.286Z,56.70
2018-06-11T11:09:23.691Z,57.20
2018-06-11T11:11:56.048Z,58.30
2018-06-11T11:14:28.493Z,58.20
2018-06-11T11:17:00.798Z,57.60
2018-06-11T11:19:33.188Z,57.00
2018-06-11T11:22:05.591Z,57.30
2018-06-11T11:24:37.969Z,56.90
2018-06-11T11:27:10.347Z,56.90
2018-06-11T11:29:42.701Z,57.10
2018-06-11T11:32:15.061Z,56.40
2018-06-11T11:34:47.474Z,56.30
2018-06-11T11:37:19.871Z,55.80
2018-06-11T11:39:52.235Z,55.70
2018-06-11T11:42:24.584Z,55.10
2018-06-11T11:44:56.949Z,54.70
2018-06-11T11:47:29.326Z,54.50
2018-06-11T11:50:01.694Z,56.00
2018-06-11T11:52:34.051Z,54.90
2018-06-11T11:55:06.451Z,55.60
2018-06-11T11:57:38.830Z,54.90
2018-06-11T12:00:11.215Z,55.30
2018-06-11T12:02:43.574Z,55.50
2018-06-11T12:05:15.953Z,55.60
2018-06-11T12:07:48.321Z,54.40
2018-06-11T12:10:21.248Z,53.60
2018-06-11T12:12:53.608Z,54.90
2018-06-11T12:15:25.970Z,54.90
2018-06-11T12:17:58.349Z,54.50
2018-06-11T12:20:30.725Z,53.80
2018-06-11T12:23:03.145Z,53.70
2018-06-11T12:25:35.487Z,52.80
2018-06-11T12:28:07.876Z,52.80
2018-06-11T12:30:40.294Z,52.20
2018-06-11T12:33:12.805Z,52.50
2018-06-11T12:35:45.207Z,51.80
2018-06-11T12:38:17.621Z,53.40
2018-06-11T12:40:49.997Z,52.80
2018-06-11T12:43:22.344Z,51.90
2018-06-11T12:45:54.712Z,51.70
2018-06-11T12:48:27.117Z,51.10
2018-06-11T12:50:59.481Z,51.70
2018-06-11T12:53:33.108Z,51.80
2018-06-11T12:56:06.795Z,51.60
2018-06-11T12:58:40.498Z,51.30
2018-06-11T13:01:14.227Z,51.90
2018-06-11T13:03:46.709Z,51.40
2018-06-11T13:06:19.109Z,52.20
2018-06-11T13:08:51.505Z,51.80
2018-06-11T13:11:23.850Z,51.30
2018-06-11T13:13:56.260Z,51.80
2018-06-11T13:16:28.636Z,52.00
2018-06-11T13:19:01.013Z,52.50
2018-06-11T13:21:33.371Z,52.50
2018-06-11T13:24:05.803Z,53.00
2018-06-11T13:26:38.236Z,53.60
2018-06-11T13:29:10.622Z,53.10
2018-06-11T13:31:43.008Z,53.70
2018-06-11T13:34:15.460Z,53.90
2018-06-11T13:36:47.868Z,54.20
2018-06-11T13:39:20.229Z,53.30
2018-06-11T13:41:52.615Z,54.00
2018-06-11T13:44:25.021Z,54.20
2018-06-11T13:46:57.392Z,53.70
2018-06-11T13:49:29.771Z,52.90
2018-06-11T13:52:02.189Z,51.50
2018-06-11T13:54:34.595Z,52.20
2018-06-11T13:57:07.125Z,52.10
2018-06-11T13:59:40.375Z,51.30
2018-06-11T14:02:12.725Z,50.50
2018-06-11T14:04:45.118Z,50.00
2018-06-11T14:07:17.705Z,49.70
2018-06-11T14:09:50.141Z,50.60
2018-06-11T14:12:22.519Z,50.10
2018-06-11T14:14:54.948Z,49.30
2018-06-11T14:17:27.363Z,49.30
2018-06-11T14:19:59.784Z,49.80
2018-06-11T14:22:32.220Z,50.20
2018-06-11T14:25:04.694Z,50.60
2018-06-11T14:27:37.096Z,50.00
2018-06-11T14:30:09.544Z,48.50
2018-06-11T14:32:41.920Z,48.60
2018-06-11T14:35:14.310Z,49.60
2018-06-11T14:37:46.678Z,48.60
2018-06-11T14:40:19.096Z,47.70
2018-06-11T14:42:51.480Z,48.20
2018-06-11T14:45:23.931Z,47.70
2018-06-11T14:47:56.318Z,47.10
2018-06-11T14:50:28.784Z,47.00
2018-06-11T14:53:01.216Z,47.20
2018-06-11T14:55:33.635Z,46.60
2018-06-11T14:58:06.401Z,47.00
2018-06-11T15:00:38.752Z,46.50
2018-06-11T15:03:11.323Z,47.00
2018-06-11T15:05:43.747Z,47.60
2018-06-11T15:08:16.181Z,47.30
2018-06-11T15:10:48.624Z,46.60
2018-06-11T15:13:21.026Z,47.00
2018-06-11T15:15:53.480Z,47.50
2018-06-11T15:18:25.976Z,48.10
2018-06-11T15:20:58.406Z,48.40
2018-06-11T15:23:30.817Z,48.20
2018-06-11T15:26:03.219Z,48.50
2018-06-11T15:28:35.601Z,48.40
2018-06-11T15:31:08.034Z,47.50
2018-06-11T15:33:40.403Z,47.90
2018-06-11T15:36:12.985Z,48.40
2018-06-11T15:38:45.422Z,48.40
2018-06-11T15:41:17.865Z,48.30
2018-06-11T15:43:50.249Z,48.40
2018-06-11T15:46:23.258Z,48.10
2018-06-11T15:48:58.303Z,48.50
2018-06-11T15:51:32.234Z,48.50
2018-06-11T15:54:04.652Z,48.40
2018-06-11T15:56:37.332Z,48.60
2018-06-11T15:59:09.737Z,48.40
2018-06-11T16:01:42.194Z,48.40
2018-06-11T16:04:14.580Z,48.40
2018-06-11T16:06:47.075Z,48.30
2018-06-11T16:09:19.441Z,48.30
2018-06-11T16:11:51.868Z,48.40
2018-06-11T16:14:24.528Z,48.30
2018-06-11T16:16:56.945Z,49.00
2018-06-11T16:19:29.393Z,49.50
2018-06-11T16:22:01.825Z,49.80
2018-06-11T16:24:34.258Z,49.50
2018-06-11T16:27:06.682Z,49.50
2018-06-11T16:29:39.092Z,49.60
2018-06-11T16:32:11.534Z,49.50
2018-06-11T16:34:43.943Z,49.80
2018-06-11T16:37:16.404Z,50.10
2018-06-11T16:39:48.908Z,50.80
2018-06-11T16:42:21.296Z,51.70
2018-06-11T16:44:53.691Z,51.70
2018-06-11T16:47:26.056Z,51.70
2018-06-11T16:49:58.435Z,51.10
2018-06-11T16:52:30.801Z,51.40
2018-06-11T16:55:05.261Z,51.50
2018-06-11T16:57:37.669Z,52.10
2018-06-11T17:00:10.057Z,52.60
2018-06-11T17:02:42.461Z,52.80
2018-06-11T17:05:14.918Z,52.80
2018-06-11T17:07:47.274Z,53.10
2018-06-11T17:10:19.725Z,53.60
2018-06-11T17:12:52.157Z,53.70
2018-06-11T17:15:24.533Z,54.00
2018-06-11T17:17:56.908Z,54.20
2018-06-11T17:20:29.305Z,54.30
2018-06-11T17:23:01.708Z,54.70
2018-06-11T17:25:34.104Z,54.80
2018-06-11T17:28:06.513Z,54.80
2018-06-11T17:30:38.894Z,55.00
2018-06-11T17:33:11.346Z,55.00
2018-06-11T17:35:43.744Z,55.00
2018-06-11T17:38:16.198Z,55.10
2018-06-11T17:40:48.652Z,55.10
2018-06-11T17:43:21.048Z,55.00
2018-06-11T17:45:55.199Z,55.80
2018-06-11T17:48:27.736Z,56.30
2018-06-11T17:51:00.137Z,55.50
2018-06-11T17:53:32.767Z,55.70
2018-06-11T17:56:05.331Z,55.60
2018-06-11T18:01:09.785Z,56.40
2018-06-11T18:03:42.213Z,56.80
2018-06-11T18:06:14.641Z,57.00
2018-06-11T18:08:47.068Z,57.70
2018-06-11T18:11:19.449Z,58.10
2018-06-11T18:13:51.923Z,58.00
2018-06-11T18:16:24.416Z,57.90
2018-06-11T18:21:28.803Z,58.00
2018-06-11T18:24:01.205Z,58.30
2018-06-11T18:26:33.621Z,58.60
2018-06-11T18:29:06.311Z,58.80
2018-06-11T18:31:38.716Z,59.30
2018-06-11T18:34:11.092Z,59.80
2018-06-11T18:36:43.520Z,59.50
2018-06-11T18:39:15.922Z,59.00
2018-06-11T18:41:48.358Z,59.00
2018-06-11T18:44:20.770Z,59.50
2018-06-11T18:46:53.182Z,59.50
2018-06-11T18:49:25.621Z,59.60
2018-06-11T18:51:57.996Z,60.60
2018-06-11T18:54:30.407Z,60.40
2018-06-11T18:59:34.730Z,61.10
2018-06-11T19:02:07.237Z,60.60
2018-06-11T19:04:39.645Z,60.70
2018-06-11T19:07:12.071Z,61.10
2018-06-11T19:09:44.510Z,61.30
2018-06-11T19:12:16.929Z,61.50
2018-06-11T19:14:49.320Z,61.80
2018-06-11T19:17:21.713Z,62.20
2018-06-11T19:19:54.106Z,62.60
2018-06-11T19:22:26.624Z,63.80
2018-06-11T19:24:59.017Z,63.20
2018-06-11T19:27:31.796Z,63.40
2018-06-11T19:30:04.253Z,63.80
2018-06-11T19:32:36.675Z,63.80
2018-06-11T19:35:09.183Z,63.90
2018-06-11T19:37:41.556Z,64.20
2018-06-11T19:40:13.957Z,64.30
2018-06-11T19:42:46.356Z,64.60
2018-06-11T19:45:18.800Z,64.80
2018-06-11T19:47:51.193Z,64.80
2018-06-11T19:50:23.644Z,65.20
2018-06-11T19:52:56.082Z,65.40
2018-06-11T19:55:28.497Z,65.50
2018-06-11T19:58:00.890Z,65.90
2018-06-11T20:00:33.328Z,66.20
2018-06-11T20:03:05.741Z,66.00
2018-06-11T20:05:38.196Z,66.10
2018-06-11T20:08:10.558Z,66.10
2018-06-11T20:10:42.944Z,66.30
2018-06-11T20:13:15.380Z,66.50
2018-06-11T20:15:50.589Z,66.30
2018-06-11T20:18:39.842Z,66.60
2018-06-11T20:21:23.130Z,66.70
2018-06-11T20:24:04.698Z,67.00
2018-06-11T20:26:47.915Z,67.10
2018-06-11T20:29:30.285Z,67.50
2018-06-11T20:34:49.027Z,67.90
2018-06-11T20:37:29.796Z,67.90
2018-06-11T20:40:27.311Z,67.90
2018-06-11T20:43:14.652Z,68.20
2018-06-11T20:45:54.618Z,68.40
2018-06-11T20:48:37.343Z,68.50
2018-06-11T20:51:17.097Z,68.60
2018-06-11T20:56:32.366Z,68.90
2018-06-11T20:59:09.752Z,69.20
2018-06-11T21:04:22.834Z,69.30
2018-06-11T21:06:58.374Z,69.20
2018-06-11T21:09:33.936Z,69.30
2018-06-11T21:12:10.965Z,69.40
2018-06-11T21:14:46.253Z,69.50
2018-06-11T21:17:21.498Z,69.60
2018-06-11T21:20:14.697Z,69.30
2018-06-11T21:23:07.397Z,69.20
2018-06-11T21:25:51.793Z,68.90
2018-06-11T21:28:45.753Z,68.90
2018-06-11T21:31:37.453Z,68.90
2018-06-11T21:34:24.125Z,69.20
2018-06-11T21:37:04.437Z,69.70
2018-06-11T21:39:52.321Z,69.90
2018-06-11T21:42:28.583Z,70.00
2018-06-11T21:45:09.736Z,69.70
2018-06-11T21:47:56.009Z,69.20
2018-06-11T21:50:47.461Z,68.90
2018-06-11T21:53:41.404Z,68.70
2018-06-11T21:56:32.090Z,68.80
2018-06-11T21:59:17.654Z,68.80
2018-06-11T22:01:52.406Z,69.10
2018-06-11T22:04:29.918Z,69.50
2018-06-11T22:07:05.363Z,70.00
2018-06-11T22:09:40.089Z,70.30
2018-06-11T22:12:15.690Z,70.30
2018-06-11T22:14:49.475Z,70.00
2018-06-11T22:17:23.342Z,70.20
2018-06-11T22:19:57.795Z,69.80
2018-06-11T22:22:32.196Z,69.60
2018-06-11T22:25:06.163Z,69.60
2018-06-11T22:27:40.285Z,69.90
2018-06-11T22:30:14.269Z,69.40
2018-06-11T22:32:48.124Z,68.90
2018-06-11T22:35:21.876Z,68.60
2018-06-11T22:37:55.677Z,68.90
2018-06-11T22:40:29.520Z,68.60
2018-06-11T22:43:03.240Z,68.60
2018-06-11T22:45:37.192Z,68.10
2018-06-11T22:48:11.269Z,67.80
2018-06-11T22:50:45.020Z,67.70
2018-06-11T22:53:18.747Z,67.50
2018-06-11T22:55:52.598Z,67.20
2018-06-11T22:58:26.362Z,66.50
2018-06-11T23:01:00.235Z,66.50
2018-06-11T23:03:34.799Z,66.50
2018-06-11T23:06:25.177Z,67.50
2018-06-11T23:09:00.654Z,66.70
2018-06-11T23:11:55.091Z,66.20
2018-06-11T23:14:47.931Z,66.20
2018-06-11T23:17:29.095Z,66.10
2018-06-11T23:20:14.538Z,66.10
2018-06-11T23:22:53.272Z,65.80
2018-06-11T23:25:42.979Z,65.60
2018-06-11T23:28:31.892Z,65.30
2018-06-11T23:31:19.869Z,65.60
2018-06-11T23:34:06.198Z,65.20
2018-06-11T23:37:00.203Z,65.10
2018-06-11T23:39:50.184Z,65.70
2018-06-11T23:42:42.537Z,65.70
2018-06-11T23:45:23.854Z,66.30
2018-06-11T23:48:01.302Z,64.80
2018-06-11T23:50:44.214Z,64.50
2018-06-11T23:53:21.953Z,64.60
2018-06-11T23:56:13.773Z,64.50
2018-06-11T23:59:00.271Z,65.00
